createdAt,value
2018-12-17T00:10:07.900Z,83.85
2018-12-17T00:20:26.216Z,83.92
2018-12-17T00:30:46.184Z,83.55
2018-12-17T00:41:05.028Z,84.06
2018-12-17T00:51:25.090Z,84.18
2018-12-17T01:01:43.904Z,83.97
2018-12-17T01:12:02.527Z,84.17
2018-12-17T01:22:21.890Z,83.63
2018-12-17T01:32:41.250Z,83.03
2018-12-17T01:42:59.875Z,84.68
2018-12-17T01:53:18.982Z,84.27
2018-12-17T02:03:37.710Z,83.90
2018-12-17T02:13:57.109Z,83.79
2018-12-17T02:24:15.322Z,83.56
2018-12-17T02:34:34.872Z,83.61
2018-12-17T02:44:53.717Z,82.71
2018-12-17T02:55:12.317Z,83.82
2018-12-17T03:05:32.242Z,83.99
2018-12-17T03:15:51.367Z,85.92
2018-12-17T03:26:10.445Z,85.62
2018-12-17T03:36:29.250Z,85.99
2018-12-17T03:46:47.629Z,85.86
2018-12-17T03:57:06.398Z,86.62
2018-12-17T04:07:26.166Z,87.23
2018-12-17T04:17:44.846Z,87.38
2018-12-17T04:28:04.433Z,86.68
2018-12-17T04:38:22.926Z,86.67
2018-12-17T04:48:41.873Z,87.02
2018-12-17T04:59:00.848Z,86.60
2018-12-17T05:09:20.603Z,86.52
2018-12-17T05:19:40.143Z,85.89
2018-12-17T05:29:58.445Z,85.42
2018-12-17T05:40:17.003Z,85.75
2018-12-17T05:50:36.079Z,85.37
2018-12-17T06:00:55.888Z,85.38
2018-12-17T06:11:15.425Z,85.50
2018-12-17T06:21:34.759Z,85.61
2018-12-17T06:31:53.253Z,85.56
2018-12-17T06:42:12.080Z,85.48
2018-12-17T06:52:31.338Z,85.08
2018-12-17T07:02:52.119Z,84.91
2018-12-17T07:13:11.538Z,84.94
2018-12-17T07:23:30.578Z,84.93
2018-12-17T07:33:50.109Z,85.25
2018-12-17T07:44:10.174Z,85.28
2018-12-17T07:54:29.778Z,84.91
2018-12-17T08:04:51.946Z,84.10
2018-12-17T08:15:12.234Z,83.94
2018-12-17T08:25:29.147Z,83.20
2018-12-17T08:35:47.982Z,82.08
2018-12-17T08:46:31.680Z,82.13
2018-12-17T08:57:21.266Z,82.32
2018-12-17T09:30:18.124Z,77.83
2018-12-17T09:40:25.541Z,77.67
2018-12-17T09:50:45.835Z,77.85
2018-12-17T10:01:08.643Z,77.11
2018-12-17T10:11:27.036Z,78.22
2018-12-17T10:23:03.329Z,80.86
2018-12-17T10:32:36.224Z,78.89
2018-12-17T10:42:55.432Z,76.94
2018-12-17T10:53:46.328Z,75.04
2018-12-17T11:04:21.617Z,74.56
2018-12-17T11:14:49.163Z,74.29
2018-12-17T11:25:06.488Z,74.52
2018-12-17T11:35:25.473Z,75.59
2018-12-17T11:45:45.103Z,75.65
2018-12-17T11:56:03.564Z,76.80
2018-12-17T12:06:22.544Z,77.13
2018-12-17T12:16:42.039Z,78.34
2018-12-17T12:27:01.316Z,78.04
2018-12-17T12:37:20.777Z,79.11
2018-12-17T12:47:39.584Z,78.89
2018-12-17T12:58:03.509Z,79.79
2018-12-17T13:08:18.814Z,79.61
2018-12-17T13:18:37.379Z,80.44
2018-12-17T13:28:56.127Z,83.00
2018-12-17T13:39:14.656Z,80.94
2018-12-17T13:49:33.238Z,81.84
2018-12-17T13:59:52.073Z,82.17
2018-12-17T14:10:30.343Z,82.08
2018-12-17T14:21:07.899Z,80.39
2018-12-17T14:31:28.791Z,80.12
2018-12-17T14:41:45.701Z,81.22
2018-12-17T14:52:04.836Z,81.22
2018-12-17T15:02:23.437Z,81.73
2018-12-17T15:12:42.649Z,81.42
2018-12-17T15:23:01.320Z,81.50
2018-12-17T15:33:20.209Z,81.87
2018-12-17T15:43:39.266Z,82.58
2018-12-17T15:54:00.055Z,84.82
2018-12-17T16:04:19.786Z,84.56
2018-12-17T16:14:41.500Z,85.20
2018-12-17T16:25:03.937Z,85.83
2018-12-17T16:35:23.469Z,85.55
2018-12-17T16:45:42.463Z,85.92
2018-12-17T16:56:02.634Z,87.09
2018-12-17T17:06:21.791Z,88.63
2018-12-17T17:16:41.219Z,88.67
2018-12-17T17:27:00.640Z,87.99
2018-12-17T17:37:20.448Z,87.83
2018-12-17T17:47:40.300Z,87.65
2018-12-17T17:57:59.611Z,87.34
2018-12-17T18:08:18.790Z,87.26
2018-12-17T18:18:38.098Z,88.12
2018-12-17T18:28:59.591Z,87.95
2018-12-17T18:39:20.140Z,87.68
2018-12-17T18:49:40.153Z,87.38
2018-12-17T18:59:59.894Z,87.58
2018-12-17T19:10:18.690Z,87.82
2018-12-17T19:20:38.027Z,87.81
2018-12-17T19:30:57.340Z,87.90
2018-12-17T19:41:17.579Z,89.57
2018-12-17T19:51:37.792Z,89.05
2018-12-17T20:01:57.761Z,88.79
2018-12-17T20:12:18.042Z,88.54
2018-12-17T20:22:37.929Z,88.48
2018-12-17T20:32:57.319Z,88.62
2018-12-17T20:43:15.809Z,89.41
2018-12-17T20:53:34.482Z,89.87
2018-12-17T21:03:54.649Z,90.17
2018-12-17T21:14:15.752Z,90.40
2018-12-17T21:24:35.596Z,90.67
2018-12-17T21:34:54.870Z,90.29
2018-12-17T21:45:14.369Z,90.10
2018-12-17T21:55:33.794Z,89.87
2018-12-17T22:05:52.742Z,89.67
2018-12-17T22:16:14.381Z,89.60
2018-12-17T22:26:33.970Z,89.54
2018-12-17T22:36:53.190Z,89.34
2018-12-17T22:47:13.171Z,89.16
2018-12-17T22:57:31.391Z,89.10
2018-12-17T23:07:49.926Z,89.59
2018-12-17T23:18:07.171Z,89.89
2018-12-17T23:28:26.049Z,90.02
2018-12-17T23:38:44.792Z,90.05
2018-12-17T23:49:03.632Z,90.12
2018-12-17T23:59:22.669Z,89.98
